Terminal Aerodrome Forecast
Issued by NWS Louisville, KY

Home | Current Version | Previous Version | Text Only | Print | Product List | Glossary On
Versions: 1 2 3 4 5 6 7 8 9 10 11 12 13 14 15 16 17 18
000
FTUS43 KLMK 291100
TAFSDF
TAF
KSDF 291121Z 2912/3018 25004KT 5SM HZ SCT250
     FM291400 27006KT P6SM SCT040 BKN250
     FM292000 30008KT P6SM VCTS SCT040CB BKN100
     FM300200 31005KT P6SM SCT080
     FM301300 01006KT P6SM SKC=

USA.gov is the U.S. government's official web portal to all federal, state and local government web resources and services.